sensor_id;sensor_type;location;lat;lon;timestamp;P1;durP1;ratioP1;P2;durP2;ratioP2
34960;SDS011;30789;52.030;7.110;2023-04-01T00:01:09;4.40;;;1.48;;
34960;SDS011;30789;52.030;7.110;2023-04-01T00:03:35;3.33;;;1.60;;
34960;SDS011;30789;52.030;7.110;2023-04-01T00:06:02;2.70;;;1.35;;
34960;SDS011;30789;52.030;7.110;2023-04-01T00:08:30;4.03;;;1.60;;
34960;SDS011;30789;52.030;7.110;2023-04-01T00:10:56;2.30;;;1.38;;
34960;SDS011;30789;52.030;7.110;2023-04-01T00:13:24;2.72;;;1.20;;
34960;SDS011;30789;52.030;7.110;2023-04-01T00:15:51;2.38;;;1.42;;
34960;SDS011;30789;52.030;7.110;2023-04-01T00:18:18;4.28;;;1.58;;
34960;SDS011;30789;52.030;7.110;2023-04-01T00:20:45;4.90;;;1.50;;
34960;SDS011;30789;52.030;7.110;2023-04-01T00:23:11;2.60;;;1.45;;
34960;SDS011;30789;52.030;7.110;2023-04-01T00:25:39;4.80;;;1.77;;
34960;SDS011;30789;52.030;7.110;2023-04-01T00:28:05;3.28;;;1.50;;
34960;SDS011;30789;52.030;7.110;2023-04-01T00:30:32;2.42;;;1.70;;
34960;SDS011;30789;52.030;7.110;2023-04-01T00:32:58;2.08;;;1.30;;
34960;SDS011;30789;52.030;7.110;2023-04-01T00:35:24;2.33;;;1.27;;
34960;SDS011;30789;52.030;7.110;2023-04-01T00:37:51;1.75;;;1.45;;
34960;SDS011;30789;52.030;7.110;2023-04-01T00:40:22;4.90;;;1.70;;
34960;SDS011;30789;52.030;7.110;2023-04-01T00:42:50;2.25;;;1.50;;
34960;SDS011;30789;52.030;7.110;2023-04-01T00:45:27;1.75;;;1.55;;
34960;SDS011;30789;52.030;7.110;2023-04-01T00:48:04;4.75;;;1.90;;
34960;SDS011;30789;52.030;7.110;2023-04-01T00:50:31;2.22;;;1.52;;
34960;SDS011;30789;52.030;7.110;2023-04-01T00:52:59;3.97;;;1.90;;
34960;SDS011;30789;52.030;7.110;2023-04-01T00:55:26;3.22;;;2.03;;
34960;SDS011;30789;52.030;7.110;2023-04-01T00:57:56;3.88;;;1.92;;
34960;SDS011;30789;52.030;7.110;2023-04-01T01:00:23;2.13;;;1.58;;
34960;SDS011;30789;52.030;7.110;2023-04-01T01:02:51;3.97;;;2.08;;
34960;SDS011;30789;52.030;7.110;2023-04-01T01:05:17;6.30;;;2.08;;
34960;SDS011;30789;52.030;7.110;2023-04-01T01:07:46;3.45;;;1.83;;
34960;SDS011;30789;52.030;7.110;2023-04-01T01:10:19;4.40;;;2.03;;
34960;SDS011;30789;52.030;7.110;2023-04-01T01:12:47;2.90;;;1.92;;
34960;SDS011;30789;52.030;7.110;2023-04-01T01:15:20;3.97;;;2.25;;
34960;SDS011;30789;52.030;7.110;2023-04-01T01:17:50;4.00;;;1.98;;
34960;SDS011;30789;52.030;7.110;2023-04-01T01:23:07;3.97;;;2.00;;
34960;SDS011;30789;52.030;7.110;2023-04-01T01:25:40;4.47;;;1.80;;
34960;SDS011;30789;52.030;7.110;2023-04-01T01:28:15;3.55;;;2.00;;
34960;SDS011;30789;52.030;7.110;2023-04-01T01:30:49;2.33;;;1.85;;
34960;SDS011;30789;52.030;7.110;2023-04-01T01:33:25;3.88;;;1.95;;
34960;SDS011;30789;52.030;7.110;2023-04-01T01:35:56;1.88;;;1.60;;
34960;SDS011;30789;52.030;7.110;2023-04-01T01:38:26;2.17;;;1.50;;
34960;SDS011;30789;52.030;7.110;2023-04-01T01:40:53;2.55;;;2.00;;
34960;SDS011;30789;52.030;7.110;2023-04-01T01:43:22;4.60;;;1.55;;
34960;SDS011;30789;52.030;7.110;2023-04-01T01:45:50;3.28;;;1.95;;
34960;SDS011;30789;52.030;7.110;2023-04-01T01:48:18;2.00;;;1.48;;
34960;SDS011;30789;52.030;7.110;2023-04-01T01:50:45;3.42;;;1.48;;
34960;SDS011;30789;52.030;7.110;2023-04-01T01:53:13;2.38;;;1.25;;
34960;SDS011;30789;52.030;7.110;2023-04-01T01:55:41;2.33;;;1.05;;
34960;SDS011;30789;52.030;7.110;2023-04-01T01:58:08;1.55;;;1.33;;
34960;SDS011;30789;52.030;7.110;2023-04-01T02:00:35;1.42;;;1.17;;
34960;SDS011;30789;52.030;7.110;2023-04-01T02:03:02;3.08;;;1.48;;
34960;SDS011;30789;52.030;7.110;2023-04-01T02:05:30;1.17;;;1.08;;
34960;SDS011;30789;52.030;7.110;2023-04-01T02:07:58;1.60;;;1.23;;
34960;SDS011;30789;52.030;7.110;2023-04-01T02:10:27;5.18;;;1.30;;
34960;SDS011;30789;52.030;7.110;2023-04-01T02:12:56;2.67;;;1.33;;
34960;SDS011;30789;52.030;7.110;2023-04-01T02:15:24;3.38;;;1.05;;
34960;SDS011;30789;52.030;7.110;2023-04-01T02:17:51;3.33;;;1.35;;
34960;SDS011;30789;52.030;7.110;2023-04-01T02:20:18;1.88;;;0.90;;
34960;SDS011;30789;52.030;7.110;2023-04-01T02:22:46;2.70;;;1.13;;
34960;SDS011;30789;52.030;7.110;2023-04-01T02:25:14;1.45;;;1.20;;
34960;SDS011;30789;52.030;7.110;2023-04-01T02:27:43;2.67;;;1.00;;
34960;SDS011;30789;52.030;7.110;2023-04-01T02:30:11;2.60;;;0.88;;
34960;SDS011;30789;52.030;7.110;2023-04-01T02:32:38;1.77;;;1.30;;
34960;SDS011;30789;52.030;7.110;2023-04-01T02:35:05;2.78;;;1.10;;
34960;SDS011;30789;52.030;7.110;2023-04-01T02:37:32;1.40;;;1.15;;
34960;SDS011;30789;52.030;7.110;2023-04-01T02:39:58;1.75;;;0.80;;
34960;SDS011;30789;52.030;7.110;2023-04-01T02:42:25;2.28;;;1.10;;
34960;SDS011;30789;52.030;7.110;2023-04-01T02:44:53;1.08;;;1.00;;
34960;SDS011;30789;52.030;7.110;2023-04-01T02:47:19;4.38;;;1.10;;
34960;SDS011;30789;52.030;7.110;2023-04-01T02:49:45;1.67;;;1.00;;
34960;SDS011;30789;52.030;7.110;2023-04-01T02:52:12;1.75;;;1.30;;
34960;SDS011;30789;52.030;7.110;2023-04-01T02:54:38;3.88;;;1.13;;
34960;SDS011;30789;52.030;7.110;2023-04-01T02:57:05;1.00;;;1.00;;
34960;SDS011;30789;52.030;7.110;2023-04-01T02:59:32;2.67;;;1.55;;
34960;SDS011;30789;52.030;7.110;2023-04-01T03:01:59;1.67;;;1.52;;
34960;SDS011;30789;52.030;7.110;2023-04-01T03:04:26;2.60;;;1.70;;
34960;SDS011;30789;52.030;7.110;2023-04-01T03:06:52;3.00;;;2.28;;
34960;SDS011;30789;52.030;7.110;2023-04-01T03:09:18;2.67;;;1.95;;
34960;SDS011;30789;52.030;7.110;2023-04-01T03:11:44;2.47;;;2.03;;
34960;SDS011;30789;52.030;7.110;2023-04-01T03:14:11;2.85;;;2.00;;
34960;SDS011;30789;52.030;7.110;2023-04-01T03:16:37;3.47;;;2.50;;
34960;SDS011;30789;52.030;7.110;2023-04-01T03:19:05;5.57;;;2.88;;
34960;SDS011;30789;52.030;7.110;2023-04-01T03:21:31;5.20;;;3.03;;
34960;SDS011;30789;52.030;7.110;2023-04-01T03:23:57;4.28;;;2.83;;
34960;SDS011;30789;52.030;7.110;2023-04-01T03:26:24;3.33;;;2.85;;
34960;SDS011;30789;52.030;7.110;2023-04-01T03:28:51;4.38;;;3.20;;
34960;SDS011;30789;52.030;7.110;2023-04-01T03:31:18;4.22;;;3.00;;
34960;SDS011;30789;52.030;7.110;2023-04-01T03:33:44;4.80;;;3.00;;
34960;SDS011;30789;52.030;7.110;2023-04-01T03:36:11;4.47;;;2.92;;
34960;SDS011;30789;52.030;7.110;2023-04-01T03:38:38;4.68;;;3.08;;
34960;SDS011;30789;52.030;7.110;2023-04-01T03:41:04;4.95;;;3.03;;
34960;SDS011;30789;52.030;7.110;2023-04-01T03:43:31;4.25;;;2.42;;
34960;SDS011;30789;52.030;7.110;2023-04-01T03:45:57;3.80;;;2.42;;
34960;SDS011;30789;52.030;7.110;2023-04-01T03:48:24;4.30;;;2.47;;
34960;SDS011;30789;52.030;7.110;2023-04-01T03:50:51;3.38;;;2.67;;
34960;SDS011;30789;52.030;7.110;2023-04-01T03:53:19;2.53;;;2.15;;
34960;SDS011;30789;52.030;7.110;2023-04-01T03:55:45;2.92;;;2.22;;
34960;SDS011;30789;52.030;7.110;2023-04-01T03:58:12;4.95;;;2.47;;
34960;SDS011;30789;52.030;7.110;2023-04-01T04:00:38;4.47;;;2.60;;
34960;SDS011;30789;52.030;7.110;2023-04-01T04:03:05;5.25;;;2.58;;
34960;SDS011;30789;52.030;7.110;2023-04-01T04:05:31;3.63;;;3.03;;
34960;SDS011;30789;52.030;7.110;2023-04-01T04:07:58;3.58;;;3.10;;
34960;SDS011;30789;52.030;7.110;2023-04-01T04:10:25;5.03;;;2.60;;
34960;SDS011;30789;52.030;7.110;2023-04-01T04:12:54;4.50;;;3.30;;
34960;SDS011;30789;52.030;7.110;2023-04-01T04:15:20;6.38;;;3.05;;
34960;SDS011;30789;52.030;7.110;2023-04-01T04:17:47;3.47;;;2.58;;
34960;SDS011;30789;52.030;7.110;2023-04-01T04:20:13;3.72;;;3.00;;
34960;SDS011;30789;52.030;7.110;2023-04-01T04:22:40;4.60;;;3.33;;
34960;SDS011;30789;52.030;7.110;2023-04-01T04:25:06;4.55;;;3.40;;
34960;SDS011;30789;52.030;7.110;2023-04-01T04:27:34;3.90;;;3.50;;
34960;SDS011;30789;52.030;7.110;2023-04-01T04:30:01;5.70;;;3.53;;
34960;SDS011;30789;52.030;7.110;2023-04-01T04:32:27;4.88;;;3.28;;
34960;SDS011;30789;52.030;7.110;2023-04-01T04:34:54;4.03;;;2.95;;
34960;SDS011;30789;52.030;7.110;2023-04-01T04:37:20;3.75;;;3.15;;
34960;SDS011;30789;52.030;7.110;2023-04-01T04:39:46;3.80;;;3.15;;
34960;SDS011;30789;52.030;7.110;2023-04-01T04:42:13;3.38;;;2.80;;
34960;SDS011;30789;52.030;7.110;2023-04-01T04:44:40;3.05;;;2.38;;
34960;SDS011;30789;52.030;7.110;2023-04-01T04:47:06;4.50;;;2.97;;
34960;SDS011;30789;52.030;7.110;2023-04-01T04:49:33;4.05;;;2.53;;
34960;SDS011;30789;52.030;7.110;2023-04-01T04:51:59;3.00;;;2.63;;
34960;SDS011;30789;52.030;7.110;2023-04-01T04:54:25;4.32;;;3.08;;
34960;SDS011;30789;52.030;7.110;2023-04-01T04:56:52;4.00;;;2.88;;
34960;SDS011;30789;52.030;7.110;2023-04-01T04:59:18;4.32;;;3.20;;
34960;SDS011;30789;52.030;7.110;2023-04-01T05:01:46;6.63;;;3.42;;
34960;SDS011;30789;52.030;7.110;2023-04-01T05:04:12;4.05;;;3.05;;
34960;SDS011;30789;52.030;7.110;2023-04-01T05:06:38;3.90;;;3.22;;
34960;SDS011;30789;52.030;7.110;2023-04-01T05:09:05;3.85;;;3.08;;
34960;SDS011;30789;52.030;7.110;2023-04-01T05:11:31;6.00;;;3.55;;
34960;SDS011;30789;52.030;7.110;2023-04-01T05:13:57;6.45;;;3.33;;
34960;SDS011;30789;52.030;7.110;2023-04-01T05:16:24;6.82;;;4.07;;
34960;SDS011;30789;52.030;7.110;2023-04-01T05:18:51;3.80;;;3.17;;
34960;SDS011;30789;52.030;7.110;2023-04-01T05:21:17;5.07;;;3.53;;
34960;SDS011;30789;52.030;7.110;2023-04-01T05:23:44;6.28;;;3.47;;
34960;SDS011;30789;52.030;7.110;2023-04-01T05:26:11;5.53;;;4.22;;
34960;SDS011;30789;52.030;7.110;2023-04-01T05:28:38;6.72;;;4.57;;
34960;SDS011;30789;52.030;7.110;2023-04-01T05:31:04;7.95;;;4.68;;
34960;SDS011;30789;52.030;7.110;2023-04-01T05:33:31;7.35;;;4.47;;
34960;SDS011;30789;52.030;7.110;2023-04-01T05:36:06;9.02;;;5.10;;
34960;SDS011;30789;52.030;7.110;2023-04-01T05:38:32;5.82;;;4.32;;
34960;SDS011;30789;52.030;7.110;2023-04-01T05:40:59;7.80;;;4.22;;
34960;SDS011;30789;52.030;7.110;2023-04-01T05:43:25;6.15;;;4.43;;
34960;SDS011;30789;52.030;7.110;2023-04-01T05:45:51;6.32;;;4.53;;
34960;SDS011;30789;52.030;7.110;2023-04-01T05:48:17;7.07;;;4.18;;
34960;SDS011;30789;52.030;7.110;2023-04-01T05:50:44;7.82;;;4.32;;
34960;SDS011;30789;52.030;7.110;2023-04-01T05:53:11;5.88;;;4.57;;
34960;SDS011;30789;52.030;7.110;2023-04-01T05:55:38;6.60;;;4.82;;
34960;SDS011;30789;52.030;7.110;2023-04-01T05:58:04;6.63;;;4.35;;
34960;SDS011;30789;52.030;7.110;2023-04-01T06:00:31;8.27;;;4.40;;
34960;SDS011;30789;52.030;7.110;2023-04-01T06:02:58;6.40;;;4.03;;
34960;SDS011;30789;52.030;7.110;2023-04-01T06:05:25;5.63;;;3.90;;
34960;SDS011;30789;52.030;7.110;2023-04-01T06:07:55;5.30;;;3.85;;
34960;SDS011;30789;52.030;7.110;2023-04-01T06:10:25;6.00;;;4.27;;
34960;SDS011;30789;52.030;7.110;2023-04-01T06:13:01;10.82;;;4.28;;
34960;SDS011;30789;52.030;7.110;2023-04-01T06:15:34;6.40;;;3.65;;
34960;SDS011;30789;52.030;7.110;2023-04-01T06:18:16;6.80;;;4.10;;
34960;SDS011;30789;52.030;7.110;2023-04-01T06:20:50;4.22;;;3.72;;
34960;SDS011;30789;52.030;7.110;2023-04-01T06:23:23;5.57;;;3.85;;
34960;SDS011;30789;52.030;7.110;2023-04-01T06:25:54;5.85;;;4.25;;
34960;SDS011;30789;52.030;7.110;2023-04-01T06:31:26;4.15;;;3.63;;
34960;SDS011;30789;52.030;7.110;2023-04-01T06:34:02;4.93;;;3.40;;
34960;SDS011;30789;52.030;7.110;2023-04-01T06:36:37;5.50;;;3.95;;
34960;SDS011;30789;52.030;7.110;2023-04-01T06:39:15;5.13;;;3.90;;
34960;SDS011;30789;52.030;7.110;2023-04-01T06:41:52;6.63;;;4.75;;
34960;SDS011;30789;52.030;7.110;2023-04-01T06:44:22;6.35;;;4.03;;
34960;SDS011;30789;52.030;7.110;2023-04-01T06:46:52;5.07;;;3.45;;
34960;SDS011;30789;52.030;7.110;2023-04-01T06:49:34;7.97;;;4.63;;
34960;SDS011;30789;52.030;7.110;2023-04-01T06:52:09;5.90;;;4.30;;
34960;SDS011;30789;52.030;7.110;2023-04-01T06:54:37;5.35;;;3.95;;
34960;SDS011;30789;52.030;7.110;2023-04-01T06:57:08;6.85;;;4.60;;
34960;SDS011;30789;52.030;7.110;2023-04-01T06:59:42;5.40;;;3.97;;
34960;SDS011;30789;52.030;7.110;2023-04-01T07:02:13;5.55;;;4.20;;
34960;SDS011;30789;52.030;7.110;2023-04-01T07:04:43;6.63;;;4.47;;
34960;SDS011;30789;52.030;7.110;2023-04-01T07:07:11;6.05;;;4.60;;
34960;SDS011;30789;52.030;7.110;2023-04-01T07:09:41;6.47;;;4.25;;
34960;SDS011;30789;52.030;7.110;2023-04-01T07:12:11;6.65;;;4.85;;
34960;SDS011;30789;52.030;7.110;2023-04-01T07:14:40;7.65;;;4.82;;
34960;SDS011;30789;52.030;7.110;2023-04-01T07:17:08;6.13;;;4.30;;
34960;SDS011;30789;52.030;7.110;2023-04-01T07:19:41;5.28;;;3.95;;
34960;SDS011;30789;52.030;7.110;2023-04-01T07:22:12;8.35;;;5.35;;
34960;SDS011;30789;52.030;7.110;2023-04-01T07:24:40;6.70;;;4.85;;
34960;SDS011;30789;52.030;7.110;2023-04-01T07:27:08;7.47;;;4.60;;
34960;SDS011;30789;52.030;7.110;2023-04-01T07:29:36;5.53;;;3.80;;
34960;SDS011;30789;52.030;7.110;2023-04-01T07:32:11;6.53;;;4.50;;
34960;SDS011;30789;52.030;7.110;2023-04-01T07:34:41;8.45;;;5.15;;
34960;SDS011;30789;52.030;7.110;2023-04-01T07:37:12;4.72;;;3.53;;
34960;SDS011;30789;52.030;7.110;2023-04-01T07:39:41;5.75;;;4.18;;
34960;SDS011;30789;52.030;7.110;2023-04-01T07:42:13;6.35;;;4.13;;
34960;SDS011;30789;52.030;7.110;2023-04-01T07:44:44;6.40;;;4.57;;
34960;SDS011;30789;52.030;7.110;2023-04-01T07:47:18;5.18;;;3.78;;
34960;SDS011;30789;52.030;7.110;2023-04-01T07:49:49;8.07;;;4.88;;
34960;SDS011;30789;52.030;7.110;2023-04-01T07:52:19;5.90;;;4.05;;
34960;SDS011;30789;52.030;7.110;2023-04-01T07:54:48;5.47;;;3.88;;
34960;SDS011;30789;52.030;7.110;2023-04-01T07:57:16;6.22;;;4.00;;
34960;SDS011;30789;52.030;7.110;2023-04-01T07:59:48;7.53;;;3.83;;
34960;SDS011;30789;52.030;7.110;2023-04-01T08:04:47;4.63;;;3.40;;
34960;SDS011;30789;52.030;7.110;2023-04-01T08:07:17;5.53;;;3.85;;
34960;SDS011;30789;52.030;7.110;2023-04-01T08:09:50;4.80;;;3.72;;
34960;SDS011;30789;52.030;7.110;2023-04-01T08:12:24;4.22;;;2.97;;
34960;SDS011;30789;52.030;7.110;2023-04-01T08:14:58;4.25;;;3.33;;
34960;SDS011;30789;52.030;7.110;2023-04-01T08:17:28;3.55;;;2.80;;
34960;SDS011;30789;52.030;7.110;2023-04-01T08:20:02;5.28;;;3.40;;
34960;SDS011;30789;52.030;7.110;2023-04-01T08:22:30;4.43;;;3.15;;
34960;SDS011;30789;52.030;7.110;2023-04-01T08:25:01;4.72;;;3.25;;
34960;SDS011;30789;52.030;7.110;2023-04-01T08:27:29;4.90;;;2.72;;
34960;SDS011;30789;52.030;7.110;2023-04-01T08:29:59;3.47;;;2.45;;
34960;SDS011;30789;52.030;7.110;2023-04-01T08:32:28;4.20;;;3.33;;
34960;SDS011;30789;52.030;7.110;2023-04-01T08:34:58;3.55;;;2.92;;
34960;SDS011;30789;52.030;7.110;2023-04-01T08:37:28;3.13;;;2.47;;
34960;SDS011;30789;52.030;7.110;2023-04-01T08:39:57;4.50;;;2.88;;
34960;SDS011;30789;52.030;7.110;2023-04-01T08:42:28;4.55;;;2.85;;
34960;SDS011;30789;52.030;7.110;2023-04-01T08:45:09;3.47;;;2.70;;
34960;SDS011;30789;52.030;7.110;2023-04-01T08:47:40;3.60;;;2.75;;
34960;SDS011;30789;52.030;7.110;2023-04-01T08:50:21;3.20;;;2.58;;
34960;SDS011;30789;52.030;7.110;2023-04-01T08:52:50;2.85;;;2.40;;
34960;SDS011;30789;52.030;7.110;2023-04-01T08:55:23;4.38;;;2.35;;
34960;SDS011;30789;52.030;7.110;2023-04-01T08:57:55;3.08;;;2.38;;
34960;SDS011;30789;52.030;7.110;2023-04-01T09:00:27;2.15;;;1.92;;
34960;SDS011;30789;52.030;7.110;2023-04-01T09:03:10;2.10;;;1.90;;
34960;SDS011;30789;52.030;7.110;2023-04-01T09:08:30;2.25;;;1.90;;
34960;SDS011;30789;52.030;7.110;2023-04-01T09:11:04;1.98;;;1.77;;
34960;SDS011;30789;52.030;7.110;2023-04-01T09:13:53;2.50;;;1.45;;
34960;SDS011;30789;52.030;7.110;2023-04-01T09:16:30;2.08;;;1.67;;
34960;SDS011;30789;52.030;7.110;2023-04-01T09:22:00;1.92;;;1.60;;
34960;SDS011;30789;52.030;7.110;2023-04-01T09:24:42;5.13;;;1.60;;
34960;SDS011;30789;52.030;7.110;2023-04-01T09:27:15;3.47;;;1.73;;
34960;SDS011;30789;52.030;7.110;2023-04-01T09:30:03;1.58;;;1.33;;
34960;SDS011;30789;52.030;7.110;2023-04-01T09:32:48;1.23;;;1.08;;
34960;SDS011;30789;52.030;7.110;2023-04-01T09:35:21;1.48;;;1.23;;
34960;SDS011;30789;52.030;7.110;2023-04-01T09:37:51;1.40;;;1.30;;
34960;SDS011;30789;52.030;7.110;2023-04-01T09:40:21;1.50;;;1.38;;
34960;SDS011;30789;52.030;7.110;2023-04-01T09:43:01;1.98;;;1.35;;
34960;SDS011;30789;52.030;7.110;2023-04-01T09:45:34;2.53;;;2.33;;
34960;SDS011;30789;52.030;7.110;2023-04-01T09:48:07;1.80;;;1.63;;
34960;SDS011;30789;52.030;7.110;2023-04-01T09:50:39;1.88;;;1.70;;
34960;SDS011;30789;52.030;7.110;2023-04-01T09:53:17;1.60;;;1.00;;
34960;SDS011;30789;52.030;7.110;2023-04-01T09:58:37;0.70;;;0.70;;
34960;SDS011;30789;52.030;7.110;2023-04-01T10:01:14;1.10;;;1.00;;
34960;SDS011;30789;52.030;7.110;2023-04-01T10:04:05;1.33;;;1.08;;
34960;SDS011;30789;52.030;7.110;2023-04-01T10:06:48;0.95;;;0.88;;
34960;SDS011;30789;52.030;7.110;2023-04-01T10:09:31;2.00;;;1.23;;
34960;SDS011;30789;52.030;7.110;2023-04-01T10:15:00;0.73;;;0.73;;
34960;SDS011;30789;52.030;7.110;2023-04-01T10:17:50;0.52;;;0.52;;
34960;SDS011;30789;52.030;7.110;2023-04-01T10:20:25;1.13;;;0.70;;
34960;SDS011;30789;52.030;7.110;2023-04-01T10:26:01;0.70;;;0.70;;
34960;SDS011;30789;52.030;7.110;2023-04-01T10:28:34;1.67;;;0.93;;
34960;SDS011;30789;52.030;7.110;2023-04-01T10:31:28;1.30;;;1.20;;
34960;SDS011;30789;52.030;7.110;2023-04-01T10:34:12;2.03;;;1.10;;
34960;SDS011;30789;52.030;7.110;2023-04-01T10:36:48;1.65;;;0.90;;
34960;SDS011;30789;52.030;7.110;2023-04-01T10:39:27;1.45;;;1.30;;
34960;SDS011;30789;52.030;7.110;2023-04-01T10:44:55;1.20;;;1.10;;
34960;SDS011;30789;52.030;7.110;2023-04-01T10:47:32;1.38;;;1.27;;
34960;SDS011;30789;52.030;7.110;2023-04-01T10:55:40;2.22;;;1.55;;
34960;SDS011;30789;52.030;7.110;2023-04-01T11:03:37;1.00;;;0.80;;
34960;SDS011;30789;52.030;7.110;2023-04-01T11:06:23;0.38;;;0.38;;
34960;SDS011;30789;52.030;7.110;2023-04-01T11:14:31;1.30;;;0.50;;
34960;SDS011;30789;52.030;7.110;2023-04-01T11:17:10;0.53;;;0.50;;
34960;SDS011;30789;52.030;7.110;2023-04-01T11:22:29;0.80;;;0.60;;
34960;SDS011;30789;52.030;7.110;2023-04-01T11:25:02;0.70;;;0.70;;
34960;SDS011;30789;52.030;7.110;2023-04-01T11:27:41;0.85;;;0.68;;
34960;SDS011;30789;52.030;7.110;2023-04-01T11:30:14;1.00;;;0.70;;
34960;SDS011;30789;52.030;7.110;2023-04-01T11:32:46;0.88;;;0.73;;
34960;SDS011;30789;52.030;7.110;2023-04-01T11:37:58;0.88;;;0.60;;
34960;SDS011;30789;52.030;7.110;2023-04-01T11:40:29;0.75;;;0.65;;
34960;SDS011;30789;52.030;7.110;2023-04-01T11:43:01;0.95;;;0.70;;
34960;SDS011;30789;52.030;7.110;2023-04-01T11:45:35;0.50;;;0.50;;
34960;SDS011;30789;52.030;7.110;2023-04-01T11:48:09;1.10;;;1.10;;
34960;SDS011;30789;52.030;7.110;2023-04-01T11:50:43;1.80;;;0.95;;
34960;SDS011;30789;52.030;7.110;2023-04-01T11:55:40;2.30;;;1.70;;
34960;SDS011;30789;52.030;7.110;2023-04-01T11:58:19;1.33;;;1.20;;
34960;SDS011;30789;52.030;7.110;2023-04-01T12:00:59;1.95;;;1.63;;
34960;SDS011;30789;52.030;7.110;2023-04-01T12:03:38;2.78;;;1.20;;
34960;SDS011;30789;52.030;7.110;2023-04-01T12:06:11;1.25;;;1.15;;
34960;SDS011;30789;52.030;7.110;2023-04-01T12:08:42;1.20;;;1.10;;
34960;SDS011;30789;52.030;7.110;2023-04-01T12:11:15;1.55;;;1.30;;
34960;SDS011;30789;52.030;7.110;2023-04-01T12:13:45;1.40;;;1.15;;
34960;SDS011;30789;52.030;7.110;2023-04-01T12:16:25;1.25;;;1.13;;
34960;SDS011;30789;52.030;7.110;2023-04-01T12:18:53;1.38;;;1.20;;
34960;SDS011;30789;52.030;7.110;2023-04-01T12:21:22;1.90;;;1.48;;
34960;SDS011;30789;52.030;7.110;2023-04-01T12:23:56;3.50;;;2.20;;
34960;SDS011;30789;52.030;7.110;2023-04-01T12:26:35;1.77;;;1.42;;
34960;SDS011;30789;52.030;7.110;2023-04-01T12:29:09;2.20;;;1.40;;
34960;SDS011;30789;52.030;7.110;2023-04-01T12:31:45;2.38;;;1.60;;
34960;SDS011;30789;52.030;7.110;2023-04-01T12:34:28;4.38;;;1.70;;
34960;SDS011;30789;52.030;7.110;2023-04-01T12:37:00;1.90;;;1.70;;
34960;SDS011;30789;52.030;7.110;2023-04-01T12:39:37;1.92;;;1.67;;
34960;SDS011;30789;52.030;7.110;2023-04-01T12:42:12;1.63;;;1.52;;
34960;SDS011;30789;52.030;7.110;2023-04-01T12:44:52;1.77;;;1.55;;
34960;SDS011;30789;52.030;7.110;2023-04-01T12:47:26;1.70;;;1.60;;
34960;SDS011;30789;52.030;7.110;2023-04-01T12:50:10;12.13;;;3.15;;
34960;SDS011;30789;52.030;7.110;2023-04-01T12:52:44;2.80;;;1.58;;
34960;SDS011;30789;52.030;7.110;2023-04-01T12:58:03;2.08;;;1.65;;
34960;SDS011;30789;52.030;7.110;2023-04-01T13:00:46;2.45;;;1.83;;
34960;SDS011;30789;52.030;7.110;2023-04-01T13:03:19;2.30;;;2.00;;
34960;SDS011;30789;52.030;7.110;2023-04-01T13:06:07;4.45;;;2.35;;
34960;SDS011;30789;52.030;7.110;2023-04-01T13:08:41;2.03;;;1.60;;
34960;SDS011;30789;52.030;7.110;2023-04-01T13:11:09;1.58;;;1.48;;
34960;SDS011;30789;52.030;7.110;2023-04-01T13:13:44;1.40;;;1.30;;
34960;SDS011;30789;52.030;7.110;2023-04-01T13:16:14;1.70;;;1.60;;
34960;SDS011;30789;52.030;7.110;2023-04-01T13:18:47;2.10;;;1.75;;
34960;SDS011;30789;52.030;7.110;2023-04-01T13:21:18;3.97;;;1.88;;
34960;SDS011;30789;52.030;7.110;2023-04-01T13:23:54;3.22;;;2.25;;
34960;SDS011;30789;52.030;7.110;2023-04-01T13:26:22;2.80;;;2.58;;
34960;SDS011;30789;52.030;7.110;2023-04-01T13:28:52;2.88;;;2.67;;
34960;SDS011;30789;52.030;7.110;2023-04-01T13:31:24;3.83;;;2.20;;
34960;SDS011;30789;52.030;7.110;2023-04-01T13:33:56;3.20;;;2.90;;
34960;SDS011;30789;52.030;7.110;2023-04-01T13:36:27;3.25;;;2.92;;
34960;SDS011;30789;52.030;7.110;2023-04-01T13:39:07;2.75;;;2.50;;
34960;SDS011;30789;52.030;7.110;2023-04-01T13:41:41;3.92;;;3.53;;
34960;SDS011;30789;52.030;7.110;2023-04-01T13:44:10;3.40;;;3.10;;
34960;SDS011;30789;52.030;7.110;2023-04-01T13:49:39;3.03;;;2.72;;
34960;SDS011;30789;52.030;7.110;2023-04-01T13:52:17;3.33;;;3.00;;
34960;SDS011;30789;52.030;7.110;2023-04-01T13:57:37;3.13;;;2.85;;
34960;SDS011;30789;52.030;7.110;2023-04-01T14:00:16;4.18;;;2.88;;
34960;SDS011;30789;52.030;7.110;2023-04-01T14:05:46;4.05;;;3.05;;
34960;SDS011;30789;52.030;7.110;2023-04-01T14:08:17;3.17;;;2.65;;
34960;SDS011;30789;52.030;7.110;2023-04-01T14:10:48;2.65;;;2.17;;
34960;SDS011;30789;52.030;7.110;2023-04-01T14:13:17;3.60;;;3.22;;
34960;SDS011;30789;52.030;7.110;2023-04-01T14:15:50;3.70;;;3.00;;
34960;SDS011;30789;52.030;7.110;2023-04-01T14:21:20;3.55;;;3.25;;
34960;SDS011;30789;52.030;7.110;2023-04-01T14:26:17;4.18;;;3.20;;
34960;SDS011;30789;52.030;7.110;2023-04-01T14:28:47;3.95;;;3.20;;
34960;SDS011;30789;52.030;7.110;2023-04-01T14:31:18;3.88;;;3.08;;
34960;SDS011;30789;52.030;7.110;2023-04-01T14:33:49;3.97;;;3.10;;
34960;SDS011;30789;52.030;7.110;2023-04-01T14:36:27;6.13;;;3.22;;
34960;SDS011;30789;52.030;7.110;2023-04-01T14:38:58;4.28;;;3.30;;
34960;SDS011;30789;52.030;7.110;2023-04-01T14:41:29;6.28;;;3.80;;
34960;SDS011;30789;52.030;7.110;2023-04-01T14:44:05;3.38;;;3.05;;
34960;SDS011;30789;52.030;7.110;2023-04-01T14:49:22;4.82;;;3.20;;
34960;SDS011;30789;52.030;7.110;2023-04-01T14:51:50;3.45;;;3.00;;
34960;SDS011;30789;52.030;7.110;2023-04-01T14:54:19;4.60;;;3.40;;
34960;SDS011;30789;52.030;7.110;2023-04-01T14:56:48;5.15;;;4.03;;
34960;SDS011;30789;52.030;7.110;2023-04-01T14:59:17;3.83;;;3.30;;
34960;SDS011;30789;52.030;7.110;2023-04-01T15:01:54;4.88;;;3.28;;
34960;SDS011;30789;52.030;7.110;2023-04-01T15:04:38;3.95;;;3.10;;
34960;SDS011;30789;52.030;7.110;2023-04-01T15:07:18;2.42;;;2.17;;
34960;SDS011;30789;52.030;7.110;2023-04-01T15:09:48;3.08;;;2.53;;
34960;SDS011;30789;52.030;7.110;2023-04-01T15:12:21;3.50;;;2.33;;
34960;SDS011;30789;52.030;7.110;2023-04-01T15:14:51;2.53;;;1.70;;
34960;SDS011;30789;52.030;7.110;2023-04-01T15:17:28;2.05;;;1.83;;
34960;SDS011;30789;52.030;7.110;2023-04-01T15:20:01;2.08;;;1.88;;
34960;SDS011;30789;52.030;7.110;2023-04-01T15:22:49;2.92;;;2.00;;
34960;SDS011;30789;52.030;7.110;2023-04-01T15:25:26;2.25;;;2.08;;
34960;SDS011;30789;52.030;7.110;2023-04-01T15:27:56;2.22;;;2.03;;
34960;SDS011;30789;52.030;7.110;2023-04-01T15:30:29;2.88;;;2.28;;
34960;SDS011;30789;52.030;7.110;2023-04-01T15:33:02;2.75;;;2.50;;
34960;SDS011;30789;52.030;7.110;2023-04-01T15:35:35;3.00;;;2.47;;
34960;SDS011;30789;52.030;7.110;2023-04-01T15:38:06;2.85;;;2.20;;
34960;SDS011;30789;52.030;7.110;2023-04-01T15:40:36;2.35;;;2.03;;
34960;SDS011;30789;52.030;7.110;2023-04-01T15:43:06;2.58;;;2.38;;
34960;SDS011;30789;52.030;7.110;2023-04-01T15:45:39;2.97;;;2.00;;
34960;SDS011;30789;52.030;7.110;2023-04-01T15:48:13;3.20;;;2.30;;
34960;SDS011;30789;52.030;7.110;2023-04-01T15:50:51;4.93;;;2.15;;
34960;SDS011;30789;52.030;7.110;2023-04-01T15:53:26;3.13;;;2.35;;
34960;SDS011;30789;52.030;7.110;2023-04-01T15:55:57;2.85;;;2.15;;
34960;SDS011;30789;52.030;7.110;2023-04-01T15:58:31;2.60;;;2.40;;
34960;SDS011;30789;52.030;7.110;2023-04-01T16:01:03;2.33;;;2.10;;
34960;SDS011;30789;52.030;7.110;2023-04-01T16:03:33;2.65;;;2.33;;
34960;SDS011;30789;52.030;7.110;2023-04-01T16:06:22;3.05;;;2.65;;
34960;SDS011;30789;52.030;7.110;2023-04-01T16:08:59;3.00;;;2.70;;
34960;SDS011;30789;52.030;7.110;2023-04-01T16:11:28;2.92;;;2.30;;
34960;SDS011;30789;52.030;7.110;2023-04-01T16:14:07;2.53;;;2.33;;
34960;SDS011;30789;52.030;7.110;2023-04-01T16:16:40;3.88;;;3.30;;
34960;SDS011;30789;52.030;7.110;2023-04-01T16:19:18;2.97;;;2.63;;
34960;SDS011;30789;52.030;7.110;2023-04-01T16:21:48;2.63;;;2.42;;